createdAt,value
2022-09-22T00:01:31.278Z,72.00
2022-09-22T00:04:03.566Z,72.30
2022-09-22T00:06:33.253Z,72.40
2022-09-22T00:09:02.537Z,72.00
2022-09-22T00:11:32.131Z,71.80
2022-09-22T00:14:01.596Z,72.20
2022-09-22T00:16:31.798Z,71.90
2022-09-22T00:19:01.199Z,71.90
2022-09-22T00:21:30.911Z,72.30
2022-09-22T00:23:58.647Z,73.10
2022-09-22T00:26:26.369Z,72.30
2022-09-22T00:28:54.159Z,72.30
2022-09-22T00:31:24.839Z,72.30
2022-09-22T00:33:54.116Z,72.40
2022-09-22T00:36:26.527Z,72.20
2022-09-22T00:38:56.333Z,72.70
2022-09-22T00:41:27.572Z,72.20
2022-09-22T00:44:28.705Z,72.00
2022-09-22T00:47:01.559Z,72.20
2022-09-22T00:49:35.177Z,72.10
2022-09-22T00:52:05.574Z,71.90
2022-09-22T00:54:34.325Z,72.00
2022-09-22T00:57:06.846Z,72.00
2022-09-22T00:59:35.846Z,71.70
2022-09-22T01:02:03.855Z,72.40
2022-09-22T01:04:32.364Z,72.50
2022-09-22T01:07:01.746Z,72.40
2022-09-22T01:09:33.079Z,72.40
2022-09-22T01:12:01.508Z,72.40
2022-09-22T01:14:43.638Z,72.30
2022-09-22T01:17:19.030Z,72.10
2022-09-22T01:20:24.287Z,71.60
2022-09-22T01:23:16.472Z,71.70
2022-09-22T01:26:04.033Z,71.60
2022-09-22T01:28:58.329Z,71.80
2022-09-22T01:31:35.445Z,71.80
2022-09-22T01:34:08.045Z,71.70
2022-09-22T01:36:43.212Z,72.00
2022-09-22T01:39:16.866Z,71.80
2022-09-22T01:41:52.279Z,71.80
2022-09-22T01:44:28.064Z,71.30
2022-09-22T01:47:01.351Z,71.50
2022-09-22T01:49:33.310Z,71.70
2022-09-22T01:52:06.177Z,71.40
2022-09-22T01:54:40.997Z,71.50
2022-09-22T01:57:15.109Z,71.50
2022-09-22T01:59:48.469Z,71.90
2022-09-22T02:02:23.911Z,70.30
2022-09-22T02:04:55.177Z,69.70
2022-09-22T02:07:30.945Z,69.20
2022-09-22T02:10:01.312Z,68.90
2022-09-22T02:12:29.634Z,69.40
2022-09-22T02:14:57.420Z,69.30
2022-09-22T02:17:27.583Z,69.10
2022-09-22T02:19:57.405Z,69.00
2022-09-22T02:22:25.210Z,69.20
2022-09-22T02:24:52.999Z,69.20
2022-09-22T02:27:26.782Z,69.60
2022-09-22T02:29:58.391Z,69.30
2022-09-22T02:32:30.358Z,69.60
2022-09-22T02:34:58.315Z,69.30
2022-09-22T02:37:36.671Z,69.30
2022-09-22T02:40:09.789Z,69.70
2022-09-22T02:42:43.295Z,69.00
2022-09-22T02:45:15.655Z,69.00
2022-09-22T02:47:49.883Z,69.30
2022-09-22T02:50:21.125Z,69.40
2022-09-22T02:52:53.712Z,69.10
2022-09-22T02:55:21.592Z,69.20
2022-09-22T02:57:49.382Z,69.50
2022-09-22T03:00:17.184Z,69.20
2022-09-22T03:02:46.310Z,68.70
2022-09-22T03:05:14.275Z,69.10
2022-09-22T03:07:42.054Z,69.20
2022-09-22T03:10:11.014Z,69.20
2022-09-22T03:13:02.542Z,69.00
2022-09-22T03:15:30.643Z,69.10
2022-09-22T03:17:59.902Z,68.80
2022-09-22T03:20:27.665Z,68.40
2022-09-22T03:22:55.518Z,69.00
2022-09-22T03:25:23.422Z,68.50
2022-09-22T03:27:51.175Z,68.30
2022-09-22T03:30:19.018Z,67.80
2022-09-22T03:32:46.817Z,68.30
2022-09-22T03:35:16.072Z,68.10
2022-09-22T03:37:43.807Z,68.20
2022-09-22T03:40:11.897Z,67.20
2022-09-22T03:42:39.827Z,67.40
2022-09-22T03:45:09.439Z,67.30
2022-09-22T03:47:37.193Z,66.90
2022-09-22T03:50:05.970Z,67.20
2022-09-22T03:52:35.110Z,67.20
2022-09-22T03:55:03.028Z,67.10
2022-09-22T03:57:31.260Z,67.10
2022-09-22T03:59:59.008Z,67.40
2022-09-22T04:02:26.812Z,67.30
2022-09-22T04:04:54.763Z,66.90
2022-09-22T04:07:22.792Z,66.40
2022-09-22T04:09:51.881Z,66.90
2022-09-22T04:12:19.621Z,68.10
2022-09-22T04:14:47.408Z,67.90
2022-09-22T04:17:15.214Z,68.40
2022-09-22T04:19:42.959Z,67.70
2022-09-22T04:22:10.734Z,68.90
2022-09-22T04:24:38.655Z,69.00
2022-09-22T04:27:19.688Z,68.80
2022-09-22T04:29:48.339Z,68.40
2022-09-22T04:32:16.133Z,68.20
2022-09-22T04:34:43.922Z,68.40
2022-09-22T04:37:13.445Z,68.70
2022-09-22T04:39:42.148Z,68.50
2022-09-22T04:42:11.236Z,69.00
2022-09-22T04:44:39.036Z,68.80
2022-09-22T04:47:07.095Z,68.80
2022-09-22T04:49:34.854Z,68.60
2022-09-22T04:52:03.024Z,68.20
2022-09-22T04:54:32.951Z,68.50
2022-09-22T04:57:00.728Z,68.50
2022-09-22T04:59:30.417Z,68.70
2022-09-22T05:01:58.137Z,68.70
2022-09-22T05:04:26.007Z,68.60
2022-09-22T05:06:53.779Z,68.90
2022-09-22T05:09:21.772Z,68.10
2022-09-22T05:11:49.841Z,69.00
2022-09-22T05:14:20.563Z,68.70
2022-09-22T05:16:52.300Z,68.60
2022-09-22T05:19:20.944Z,68.60
2022-09-22T05:21:48.728Z,68.30
2022-09-22T05:24:16.589Z,69.60
2022-09-22T05:26:44.360Z,70.30
2022-09-22T05:29:12.090Z,69.40
2022-09-22T05:31:39.943Z,69.40
2022-09-22T05:34:09.133Z,69.30
2022-09-22T05:36:36.925Z,69.00
2022-09-22T05:39:04.948Z,69.00
2022-09-22T05:41:32.738Z,69.10
2022-09-22T05:44:00.542Z,68.50
2022-09-22T05:46:28.725Z,68.60
2022-09-22T05:48:56.479Z,68.60
2022-09-22T05:51:25.545Z,69.00
2022-09-22T05:53:53.813Z,69.10
2022-09-22T05:56:21.597Z,69.00
2022-09-22T05:58:49.343Z,69.00
2022-09-22T06:01:19.491Z,68.80
2022-09-22T06:03:47.309Z,69.00
2022-09-22T06:06:15.750Z,68.50
2022-09-22T06:08:48.589Z,68.50
2022-09-22T06:11:16.764Z,68.90
2022-09-22T06:13:44.551Z,68.90
2022-09-22T06:16:12.370Z,68.90
2022-09-22T06:18:40.137Z,68.60
2022-09-22T06:21:08.056Z,68.50
2022-09-22T06:23:40.616Z,69.20
2022-09-22T06:26:11.979Z,68.90
2022-09-22T06:28:39.720Z,69.30
2022-09-22T06:31:07.776Z,69.00
2022-09-22T06:33:35.833Z,69.40
2022-09-22T06:36:04.102Z,69.30
2022-09-22T06:38:32.831Z,69.00
2022-09-22T06:41:02.708Z,68.60
2022-09-22T06:43:32.845Z,69.00
2022-09-22T06:46:02.622Z,69.10
2022-09-22T06:48:31.888Z,69.00
2022-09-22T06:50:59.625Z,69.40
2022-09-22T06:53:27.798Z,69.40
2022-09-22T06:55:55.721Z,68.90
2022-09-22T06:58:24.001Z,68.70
2022-09-22T07:00:53.740Z,69.20
2022-09-22T07:03:24.230Z,68.70
2022-09-22T07:05:56.322Z,68.50
2022-09-22T07:08:25.414Z,67.60
2022-09-22T07:10:54.760Z,68.10
2022-09-22T07:13:22.672Z,67.50
2022-09-22T07:15:51.090Z,67.20
2022-09-22T07:18:20.233Z,67.60
2022-09-22T07:20:48.086Z,67.20
2022-09-22T07:23:21.066Z,66.60
2022-09-22T07:26:00.699Z,66.20
2022-09-22T07:28:29.068Z,66.40
2022-09-22T07:30:58.020Z,65.60
2022-09-22T07:33:27.576Z,64.70
2022-09-22T07:36:08.864Z,63.90
2022-09-22T07:38:37.127Z,62.60
2022-09-22T07:41:06.965Z,61.50
2022-09-22T07:43:34.918Z,60.90
2022-09-22T07:46:03.694Z,60.30
2022-09-22T07:48:42.730Z,59.80
2022-09-22T07:51:16.564Z,59.70
2022-09-22T07:53:45.693Z,59.30
2022-09-22T07:56:15.428Z,58.80
2022-09-22T07:58:48.055Z,58.40
2022-09-22T08:01:15.836Z,58.30
2022-09-22T08:03:46.180Z,58.00
2022-09-22T08:06:16.608Z,57.00
2022-09-22T08:08:47.525Z,57.30
2022-09-22T08:11:17.467Z,56.60
2022-09-22T08:13:50.689Z,56.50
2022-09-22T08:16:18.650Z,56.60
2022-09-22T08:18:50.790Z,55.70
2022-09-22T08:21:19.570Z,56.00
2022-09-22T08:23:51.065Z,56.00
2022-09-22T08:26:19.606Z,56.00
2022-09-22T08:28:48.012Z,55.70
2022-09-22T08:31:17.664Z,55.70
2022-09-22T08:33:47.313Z,55.40
2022-09-22T08:36:15.120Z,55.20
2022-09-22T08:38:48.353Z,55.20
2022-09-22T08:41:21.677Z,55.30
2022-09-22T08:43:54.299Z,55.30
2022-09-22T08:46:27.599Z,54.40
2022-09-22T08:49:18.447Z,55.10
2022-09-22T08:51:55.356Z,55.40
2022-09-22T08:54:32.040Z,55.00
2022-09-22T08:57:12.533Z,54.60
2022-09-22T08:59:46.796Z,54.70
2022-09-22T09:02:39.956Z,55.00
2022-09-22T09:06:04.173Z,54.10
2022-09-22T09:09:04.602Z,54.80
2022-09-22T09:11:49.333Z,55.70
2022-09-22T09:14:30.532Z,54.50
2022-09-22T09:17:01.991Z,54.80
2022-09-22T09:19:35.787Z,54.40
2022-09-22T09:22:11.753Z,54.80
2022-09-22T09:27:39.449Z,55.10
2022-09-22T09:30:11.191Z,54.40
2022-09-22T09:32:49.083Z,54.80
2022-09-22T09:35:19.664Z,54.80
2022-09-22T09:37:49.827Z,54.80
2022-09-22T09:40:19.841Z,55.50
2022-09-22T09:42:58.642Z,54.90
2022-09-22T09:45:33.177Z,54.20
2022-09-22T09:48:15.907Z,54.60
2022-09-22T09:50:43.719Z,54.70
2022-09-22T09:53:29.000Z,54.50
2022-09-22T09:55:56.910Z,54.80
2022-09-22T09:58:42.008Z,54.90
2022-09-22T10:01:14.279Z,55.10
2022-09-22T10:03:48.125Z,53.90
2022-09-22T10:06:24.140Z,53.40
2022-09-22T10:08:53.736Z,53.90
2022-09-22T10:11:31.165Z,55.60
2022-09-22T10:13:59.297Z,54.40
2022-09-22T10:16:28.689Z,55.20
2022-09-22T10:19:06.421Z,53.80
2022-09-22T10:21:37.512Z,52.90
2022-09-22T10:24:25.396Z,52.70
2022-09-22T10:26:56.108Z,52.40
2022-09-22T10:29:24.990Z,53.00
2022-09-22T10:32:13.389Z,53.90
2022-09-22T10:37:13.827Z,53.70
2022-09-22T10:39:46.311Z,54.00
2022-09-22T10:42:27.595Z,53.90
2022-09-22T10:45:06.937Z,53.80
2022-09-22T10:47:51.357Z,54.10
2022-09-22T10:50:42.494Z,53.40
2022-09-22T10:53:34.591Z,54.00
2022-09-22T10:56:12.335Z,54.20
2022-09-22T10:59:11.289Z,53.70
2022-09-22T11:01:50.499Z,55.20
2022-09-22T11:04:37.179Z,53.60
2022-09-22T11:07:38.087Z,54.50
2022-09-22T11:10:37.305Z,54.50
2022-09-22T11:13:16.368Z,52.20
2022-09-22T11:16:29.163Z,53.00
2022-09-22T11:19:22.962Z,54.50
2022-09-22T11:22:02.460Z,56.90
2022-09-22T11:24:51.258Z,56.50
2022-09-22T11:27:26.929Z,56.10
2022-09-22T11:30:16.619Z,55.50
2022-09-22T11:32:59.526Z,54.30
2022-09-22T11:35:38.696Z,55.60
2022-09-22T11:38:24.784Z,55.60
2022-09-22T11:41:05.070Z,55.20
2022-09-22T11:43:49.745Z,56.30
2022-09-22T11:46:25.984Z,55.00
2022-09-22T11:49:09.254Z,56.00
2022-09-22T11:51:52.349Z,56.20
2022-09-22T11:54:30.433Z,56.20
2022-09-22T11:57:02.590Z,57.10
2022-09-22T11:59:40.579Z,56.20
2022-09-22T12:02:18.170Z,56.20
2022-09-22T12:04:50.861Z,55.70
2022-09-22T12:07:25.351Z,56.60
2022-09-22T12:09:57.182Z,56.80
2022-09-22T12:12:26.094Z,57.40
2022-09-22T12:14:59.917Z,56.80
2022-09-22T12:17:36.615Z,55.80
2022-09-22T12:20:18.702Z,55.30
2022-09-22T12:23:10.614Z,56.00
2022-09-22T12:25:49.688Z,56.30
2022-09-22T12:28:19.808Z,55.30
2022-09-22T12:30:59.819Z,56.50
2022-09-22T12:33:30.156Z,56.00
2022-09-22T12:35:58.592Z,55.90
2022-09-22T12:38:26.754Z,56.70
2022-09-22T12:40:59.863Z,57.20
2022-09-22T12:43:28.834Z,55.20
2022-09-22T12:45:58.328Z,56.00
2022-09-22T12:48:32.135Z,57.00
2022-09-22T12:51:34.324Z,56.20
2022-09-22T12:54:47.904Z,56.80
2022-09-22T12:57:44.552Z,55.60
2022-09-22T13:00:34.965Z,55.80
2022-09-22T13:03:48.801Z,55.70
2022-09-22T13:06:53.814Z,56.60
2022-09-22T13:09:25.769Z,56.50
2022-09-22T13:12:28.450Z,56.20
2022-09-22T13:15:20.924Z,57.30
2022-09-22T13:17:49.970Z,56.50
2022-09-22T13:20:22.497Z,56.70
2022-09-22T13:22:51.029Z,56.90
2022-09-22T13:25:27.817Z,56.90
2022-09-22T13:28:13.968Z,56.60
2022-09-22T13:30:43.503Z,55.90
2022-09-22T13:33:25.463Z,56.50
2022-09-22T13:36:00.441Z,57.00
2022-09-22T13:38:29.518Z,56.30
2022-09-22T13:40:59.161Z,56.10
2022-09-22T13:43:31.023Z,56.50
2022-09-22T13:46:00.938Z,57.00
2022-09-22T13:48:32.532Z,57.00
2022-09-22T13:51:05.131Z,56.10
2022-09-22T13:53:33.511Z,57.00
2022-09-22T13:56:01.644Z,57.20
2022-09-22T13:58:37.709Z,57.20
2022-09-22T14:01:15.472Z,57.20
2022-09-22T14:03:44.247Z,57.90
2022-09-22T14:06:16.077Z,57.80
2022-09-22T14:08:45.337Z,56.30
2022-09-22T14:11:16.155Z,57.30
2022-09-22T14:13:56.837Z,56.20
2022-09-22T14:16:29.358Z,55.70
2022-09-22T14:19:02.972Z,56.80
2022-09-22T14:21:33.076Z,52.90
2022-09-22T14:24:01.803Z,54.00
2022-09-22T14:26:34.314Z,55.70
2022-09-22T14:29:15.068Z,52.90
2022-09-22T14:31:46.434Z,54.50
2022-09-22T14:34:20.922Z,54.00
2022-09-22T14:36:52.003Z,56.00
2022-09-22T14:39:27.025Z,55.70
2022-09-22T14:41:59.860Z,53.50
2022-09-22T14:44:44.541Z,53.80
2022-09-22T14:47:39.218Z,53.70
2022-09-22T14:50:19.942Z,54.20
2022-09-22T14:52:54.918Z,54.30
2022-09-22T14:55:30.711Z,53.20
2022-09-22T14:58:03.003Z,52.70
2022-09-22T15:00:48.700Z,53.50
2022-09-22T15:03:21.147Z,54.50
2022-09-22T15:05:50.157Z,53.60
2022-09-22T15:08:27.546Z,53.60
2022-09-22T15:10:57.488Z,52.20
2022-09-22T15:13:30.955Z,52.70
2022-09-22T15:15:58.945Z,53.10
2022-09-22T15:18:30.610Z,52.10
2022-09-22T15:21:00.719Z,53.10
2022-09-22T15:23:32.618Z,52.20
2022-09-22T15:26:03.956Z,52.80
2022-09-22T15:28:34.983Z,52.70
2022-09-22T15:31:02.721Z,52.90
2022-09-22T15:33:30.463Z,52.80
2022-09-22T15:36:03.022Z,53.10
2022-09-22T15:38:35.328Z,52.90
2022-09-22T15:41:03.096Z,53.60
2022-09-22T15:43:31.557Z,53.40
2022-09-22T15:46:04.965Z,53.10
2022-09-22T15:48:34.839Z,53.20
2022-09-22T15:51:05.423Z,53.20
2022-09-22T15:53:35.576Z,54.00
2022-09-22T15:56:06.556Z,53.60
2022-09-22T15:58:36.646Z,54.50
2022-09-22T16:01:05.532Z,54.90
2022-09-22T16:03:38.950Z,55.20
2022-09-22T16:06:12.535Z,53.20
2022-09-22T16:08:43.807Z,53.50
2022-09-22T16:11:14.477Z,53.90
2022-09-22T16:13:42.527Z,54.30
2022-09-22T16:16:10.655Z,54.60
2022-09-22T16:18:39.485Z,54.70
2022-09-22T16:21:09.386Z,55.00
2022-09-22T16:23:37.198Z,55.00
2022-09-22T16:26:06.514Z,56.30
2022-09-22T16:28:34.249Z,55.30
2022-09-22T16:31:03.283Z,54.70
2022-09-22T16:33:31.205Z,55.30
2022-09-22T16:35:59.083Z,54.70
2022-09-22T16:38:26.839Z,55.40
2022-09-22T16:41:05.009Z,55.70
2022-09-22T16:43:34.757Z,55.90
2022-09-22T16:46:20.386Z,55.90
2022-09-22T16:48:48.360Z,56.40
2022-09-22T16:51:19.128Z,56.60
2022-09-22T16:53:52.695Z,57.00
2022-09-22T16:56:20.839Z,57.90
2022-09-22T16:58:50.048Z,58.20
2022-09-22T17:01:20.066Z,58.90
2022-09-22T17:03:50.200Z,58.90
2022-09-22T17:06:24.258Z,59.20
2022-09-22T17:08:53.448Z,59.00
2022-09-22T17:11:23.312Z,59.00
2022-09-22T17:13:55.532Z,59.40
2022-09-22T17:16:25.715Z,59.50
2022-09-22T17:18:54.504Z,59.70
2022-09-22T17:21:22.875Z,59.90
2022-09-22T17:23:51.929Z,60.20
2022-09-22T17:26:20.877Z,60.50
2022-09-22T17:28:51.320Z,60.70
2022-09-22T17:31:20.964Z,61.00
2022-09-22T17:33:52.205Z,61.30
2022-09-22T17:36:21.904Z,62.40
2022-09-22T17:38:51.588Z,61.90
2022-09-22T17:41:20.536Z,62.10
2022-09-22T17:43:51.889Z,62.10
2022-09-22T17:46:21.524Z,62.50
2022-09-22T17:49:07.248Z,62.80
2022-09-22T17:51:54.160Z,62.80
2022-09-22T17:54:41.640Z,62.80
2022-09-22T17:57:10.836Z,63.30
2022-09-22T17:59:40.823Z,63.60
2022-09-22T18:02:12.080Z,63.70
2022-09-22T18:04:40.338Z,63.70
2022-09-22T18:07:10.082Z,63.90
2022-09-22T18:09:39.749Z,63.70
2022-09-22T18:12:10.082Z,63.70
2022-09-22T18:14:40.977Z,64.00
2022-09-22T18:17:12.624Z,63.90
2022-09-22T18:19:41.992Z,64.30
2022-09-22T18:22:14.135Z,64.40
2022-09-22T18:24:42.634Z,64.90
2022-09-22T18:27:11.813Z,64.70
2022-09-22T18:29:39.827Z,64.90
2022-09-22T18:32:07.612Z,64.70
2022-09-22T18:34:37.653Z,64.90
2022-09-22T18:37:05.999Z,64.60
2022-09-22T18:39:34.451Z,65.10
2022-09-22T18:42:02.200Z,65.00
2022-09-22T18:44:29.934Z,65.10
2022-09-22T18:47:01.099Z,65.20
2022-09-22T18:49:32.155Z,65.50
2022-09-22T18:52:02.282Z,65.70
2022-09-22T18:54:30.844Z,65.70
2022-09-22T18:56:58.775Z,65.80
2022-09-22T18:59:28.284Z,66.10
2022-09-22T19:01:56.345Z,66.40
2022-09-22T19:04:26.534Z,66.10
2022-09-22T19:07:13.673Z,66.20
2022-09-22T19:09:44.298Z,66.40
2022-09-22T19:12:12.861Z,66.50
2022-09-22T19:14:42.174Z,66.70
2022-09-22T19:17:11.628Z,67.10
2022-09-22T19:19:42.348Z,66.30
2022-09-22T19:22:13.745Z,66.80
2022-09-22T19:24:45.884Z,66.80
2022-09-22T19:27:15.385Z,66.80
2022-09-22T19:29:43.232Z,67.30
2022-09-22T19:32:11.088Z,67.30
2022-09-22T19:34:38.835Z,67.60
2022-09-22T19:37:07.479Z,67.60
2022-09-22T19:39:35.294Z,67.30
2022-09-22T19:42:04.792Z,67.60
2022-09-22T19:44:32.765Z,68.10
2022-09-22T19:47:00.581Z,68.10
2022-09-22T19:49:29.526Z,68.20
2022-09-22T19:51:57.316Z,67.80
2022-09-22T19:54:25.040Z,68.30
2022-09-22T19:56:52.772Z,68.00
2022-09-22T19:59:21.840Z,68.30
2022-09-22T20:01:49.660Z,68.40
2022-09-22T20:04:23.342Z,68.40
2022-09-22T20:06:51.550Z,68.00
2022-09-22T20:09:19.642Z,68.20
2022-09-22T20:11:50.567Z,68.10
2022-09-22T20:14:22.060Z,68.40
2022-09-22T20:16:53.280Z,68.40
2022-09-22T20:19:21.227Z,68.50
2022-09-22T20:21:50.893Z,68.50
2022-09-22T20:24:21.344Z,68.40
2022-09-22T20:26:49.676Z,68.50
2022-09-22T20:29:18.227Z,68.50
2022-09-22T20:31:46.002Z,68.70
2022-09-22T20:34:16.575Z,68.70
2022-09-22T20:36:44.455Z,68.70
2022-09-22T20:39:14.297Z,68.70
2022-09-22T20:41:42.930Z,68.80
2022-09-22T20:44:14.447Z,68.90
2022-09-22T20:46:43.004Z,68.90
2022-09-22T20:49:14.589Z,68.80
2022-09-22T20:51:43.672Z,68.90
2022-09-22T20:54:11.396Z,68.90
2022-09-22T20:56:42.624Z,68.90
2022-09-22T20:59:11.113Z,69.00
2022-09-22T21:01:39.002Z,69.10
2022-09-22T21:04:07.172Z,69.40
2022-09-22T21:06:35.099Z,69.10
2022-09-22T21:09:21.564Z,69.30
2022-09-22T21:11:49.306Z,69.20
2022-09-22T21:14:17.262Z,69.20
2022-09-22T21:16:45.318Z,69.30
2022-09-22T21:19:13.300Z,69.10
2022-09-22T21:21:41.704Z,69.00
2022-09-22T21:24:11.148Z,68.90
2022-09-22T21:26:38.979Z,69.20
2022-09-22T21:29:06.745Z,69.00
2022-09-22T21:31:35.295Z,69.30
2022-09-22T21:34:03.024Z,69.30
2022-09-22T21:36:31.046Z,69.60
2022-09-22T21:39:00.341Z,70.20
2022-09-22T21:41:31.268Z,70.10
2022-09-22T21:43:59.857Z,70.10
2022-09-22T21:46:29.989Z,70.40
2022-09-22T21:49:01.359Z,70.20
2022-09-22T21:51:30.645Z,69.80
2022-09-22T21:53:58.432Z,70.30
2022-09-22T21:56:26.836Z,70.30
2022-09-22T21:58:56.119Z,70.30
2022-09-22T22:01:26.837Z,70.20
2022-09-22T22:03:55.986Z,69.80
2022-09-22T22:06:26.112Z,70.40
2022-09-22T22:09:02.186Z,70.50
2022-09-22T22:11:32.604Z,70.30
2022-09-22T22:14:03.300Z,70.00
2022-09-22T22:16:33.097Z,70.50
2022-09-22T22:19:01.106Z,70.50
2022-09-22T22:21:30.668Z,70.60
2022-09-22T22:24:19.840Z,70.50
2022-09-22T22:26:49.508Z,70.70
2022-09-22T22:29:18.948Z,70.20
2022-09-22T22:31:48.901Z,70.10
2022-09-22T22:34:18.620Z,69.70
2022-09-22T22:36:46.577Z,69.70
2022-09-22T22:39:14.645Z,69.60
2022-09-22T22:41:42.566Z,69.60
2022-09-22T22:44:10.293Z,69.40
2022-09-22T22:46:39.773Z,69.60
2022-09-22T22:49:08.122Z,69.40
2022-09-22T22:51:36.629Z,69.50
2022-09-22T22:54:05.508Z,69.90
2022-09-22T22:56:33.829Z,69.40
2022-09-22T22:59:01.598Z,69.70
2022-09-22T23:01:31.386Z,69.70
2022-09-22T23:04:02.047Z,70.00
2022-09-22T23:06:31.864Z,69.70
2022-09-22T23:08:59.941Z,69.80
2022-09-22T23:11:29.813Z,69.70
2022-09-22T23:14:01.431Z,69.40
2022-09-22T23:16:30.867Z,69.60
2022-09-22T23:19:02.341Z,70.20
2022-09-22T23:21:31.145Z,70.10
2022-09-22T23:23:59.731Z,69.90
2022-09-22T23:26:28.806Z,70.00
2022-09-22T23:28:58.207Z,69.80
2022-09-22T23:31:26.411Z,69.90
2022-09-22T23:33:54.481Z,69.80
2022-09-22T23:36:25.222Z,69.90
2022-09-22T23:38:54.861Z,70.00
2022-09-22T23:41:22.868Z,70.00
2022-09-22T23:43:50.815Z,69.80
2022-09-22T23:46:19.858Z,70.60
2022-09-22T23:48:48.291Z,69.90
2022-09-22T23:51:16.033Z,69.80
2022-09-22T23:53:45.120Z,69.50
2022-09-22T23:56:13.774Z,69.90
2022-09-22T23:58:42.158Z,70.00
